Raleigh County Memorial (BKW)

 

Airport Diagram
No Airport Diagram Available
Current Weather/Forecast (VFR Conditions)
METAR KBKW 182351Z AUTO 31006KT 10SM BKN080 12/M01 A2988 RMK AO2 SLP116 T01171011 10144 20117 50001 TSNO
TAF KBKW 182320Z 1900/1924 29005KT P6SM BKN080 FM190200 00000KT P6SM FEW250 FM191800 30007KT P6SM SCT027 FM192000 29008KT P6SM SCT045

Airport Information

All Charts
General
Chart Name View
TAKEOFF MINIMUMS
ALTERNATE MINIMUMS
TAKEOFF MINIMUMS
ALTERNATE MINIMUMS

Approaches
Chart Name Download
ILS OR LOC RWY 19
RNAV (GPS) RWY 01
RNAV (GPS) RWY 10
RNAV (GPS) RWY 19
RNAV (GPS) RWY 28
VOR RWY 10
ILS OR LOC RWY 19
RNAV (GPS) RWY 01
RNAV (GPS) RWY 10
RNAV (GPS) RWY 19
RNAV (GPS) RWY 28
VOR RWY 10


Airport Statistics
Departures Arrivals Local
All Collected Stats since June 2016: 52 49 1
2021 Stats: 5 7 0
April Stats: 0 1 0

Inbound Traffic (Arrivals) - 0

No inbound traffic.


Outbound Traffic (Departures) - 0

No outbound traffic.


Local Traffic (Pattern) - 0

No local traffic.